Time;durP1;ratioP1;P1;durP2;ratioP2;P2;SDS_P1;SDS_P2;PMS_P1;PMS_P2;Temp;Humidity;BMP_temperature;BMP_pressure;BME280_temperature;BME280_humidity;BME280_pressure;Samples;Min_cycle;Max_cycle;Signal;HPM_P1;HPM_P2
2022/09/09 00:01:08;;;;;;;13.00;11.77;;;;;;;;;;5031348;28;20025;-79
2022/09/09 00:03:45;;;;;;;11.75;10.73;;;;;;;;;;5024664;28;20335;-82
2022/09/09 00:06:18;;;;;;;11.45;10.45;;;;;;;;;;5040628;28;20067;-79
2022/09/09 00:08:47;;;;;;;12.15;11.05;;;;;;;;;;5057219;28;20037;-81
2022/09/09 00:11:16;;;;;;;12.10;10.85;;;;;;;;;;5045409;28;20032;-79
2022/09/09 00:13:46;;;;;;;12.02;10.93;;;;;;;;;;5056242;28;20040;-79
2022/09/09 00:16:16;;;;;;;11.80;10.70;;;;;;;;;;5060188;28;20021;-78
2022/09/09 00:19:01;;;;;;;11.77;10.68;;;;;;;;;;5055473;28;20025;-80
2022/09/09 00:21:35;;;;;;;12.65;10.63;;;;;;;;;;5035723;28;20032;-83
2022/09/09 00:24:01;;;;;;;11.63;10.52;;;;;;;;;;5050942;28;20074;-76
2022/09/09 00:26:40;;;;;;;11.48;10.30;;;;;;;;;;5043082;28;20114;-76
2022/09/09 00:29:13;;;;;;;11.90;10.73;;;;;;;;;;5059052;28;20063;-78
2022/09/09 00:31:38;;;;;;;11.45;10.55;;;;;;;;;;5051312;28;20029;-81
2022/09/09 00:34:24;;;;;;;12.00;10.82;;;;;;;;;;5048653;28;20021;-81
2022/09/09 00:36:52;;;;;;;11.10;10.00;;;;;;;;;;5053456;28;20053;-79
2022/09/09 00:39:25;;;;;;;12.85;11.70;;;;;;;;;;5054685;28;20090;-81
2022/09/09 00:41:59;;;;;;;12.02;10.95;;;;;;;;;;5045910;28;20024;-78
2022/09/09 00:44:31;;;;;;;11.82;10.75;;;;;;;;;;5056954;28;20075;-79
2022/09/09 00:47:02;;;;;;;11.85;10.70;;;;;;;;;;5043496;28;20610;-79
2022/09/09 00:49:28;;;;;;;11.55;10.43;;;;;;;;;;5041487;28;20060;-83
2022/09/09 00:51:59;;;;;;;13.32;10.82;;;;;;;;;;5054172;28;20056;-84
2022/09/09 00:54:36;;;;;;;12.00;10.85;;;;;;;;;;5057758;28;20098;-85
2022/09/09 00:57:19;;;;;;;12.13;10.82;;;;;;;;;;5042754;28;20031;-81
2022/09/09 00:59:47;;;;;;;12.00;10.85;;;;;;;;;;5056046;28;20181;-81
2022/09/09 01:02:27;;;;;;;11.10;10.20;;;;;;;;;;5040429;28;20024;-79
2022/09/09 01:04:54;;;;;;;12.00;10.85;;;;;;;;;;5057074;28;20017;-77
2022/09/09 01:07:20;;;;;;;11.95;10.85;;;;;;;;;;5048228;28;20020;-77
2022/09/09 01:09:51;;;;;;;12.43;10.90;;;;;;;;;;5055243;28;20035;-79
2022/09/09 01:12:31;;;;;;;11.55;10.32;;;;;;;;;;5046707;28;20059;-78
2022/09/09 01:15:03;;;;;;;12.40;11.02;;;;;;;;;;5056103;28;20027;-78
2022/09/09 01:17:41;;;;;;;12.57;11.43;;;;;;;;;;5054562;28;20048;-81
2022/09/09 01:20:19;;;;;;;12.00;10.85;;;;;;;;;;5057619;28;20056;-81
2022/09/09 01:22:50;;;;;;;11.93;10.80;;;;;;;;;;5055227;28;20036;-78
2022/09/09 01:25:18;;;;;;;12.23;10.82;;;;;;;;;;5031358;28;20448;-79
2022/09/09 01:27:44;;;;;;;12.55;11.55;;;;;;;;;;5049726;28;20020;-79
2022/09/09 01:30:15;;;;;;;12.00;10.93;;;;;;;;;;5045759;28;20037;-77
2022/09/09 01:32:40;;;;;;;12.90;11.60;;;;;;;;;;5055368;28;20412;-83
2022/09/09 01:35:09;;;;;;;11.88;10.77;;;;;;;;;;5057412;28;20055;-84
2022/09/09 01:37:34;;;;;;;13.18;11.82;;;;;;;;;;5050849;28;20020;-84
2022/09/09 01:40:00;;;;;;;14.63;11.98;;;;;;;;;;5048461;28;20430;-82
2022/09/09 01:42:25;;;;;;;12.35;11.15;;;;;;;;;;5040020;28;20064;-84
2022/09/09 01:44:51;;;;;;;17.40;11.05;;;;;;;;;;5042867;28;20021;-84
2022/09/09 01:47:17;;;;;;;13.38;11.90;;;;;;;;;;5049415;28;20344;-82
2022/09/09 01:49:42;;;;;;;12.60;11.32;;;;;;;;;;5046051;28;20106;-78
2022/09/09 01:52:08;;;;;;;12.48;11.32;;;;;;;;;;5050511;28;20075;-78
2022/09/09 01:54:34;;;;;;;12.25;11.05;;;;;;;;;;5056367;28;20047;-79
2022/09/09 01:57:08;;;;;;;12.45;11.35;;;;;;;;;;5040604;28;20028;-79
2022/09/09 01:59:47;;;;;;;12.45;11.23;;;;;;;;;;5048724;28;20431;-78
2022/09/09 02:02:17;;;;;;;12.00;11.02;;;;;;;;;;5050597;28;20032;-81
2022/09/09 02:04:48;;;;;;;12.43;11.10;;;;;;;;;;5044172;28;20044;-81
2022/09/09 02:07:22;;;;;;;12.75;11.57;;;;;;;;;;5055114;28;20459;-82
2022/09/09 02:09:51;;;;;;;12.82;11.52;;;;;;;;;;5047396;28;20047;-77
2022/09/09 02:12:18;;;;;;;18.45;11.50;;;;;;;;;;5048275;28;20436;-76
2022/09/09 02:14:56;;;;;;;12.70;11.40;;;;;;;;;;5061986;28;20036;-76
2022/09/09 02:17:30;;;;;;;12.77;11.50;;;;;;;;;;5061996;28;20066;-75
2022/09/09 02:19:59;;;;;;;12.15;11.05;;;;;;;;;;5060368;28;20439;-78
2022/09/09 02:22:26;;;;;;;13.32;12.23;;;;;;;;;;5060523;28;20037;-77
2022/09/09 02:24:54;;;;;;;13.48;12.30;;;;;;;;;;5040401;28;20447;-78
2022/09/09 02:27:21;;;;;;;13.07;11.97;;;;;;;;;;5057343;28;20024;-77
2022/09/09 02:29:47;;;;;;;13.55;12.35;;;;;;;;;;5048151;28;20108;-79
2022/09/09 02:32:15;;;;;;;12.55;11.35;;;;;;;;;;5040442;28;20052;-79
2022/09/09 02:34:43;;;;;;;13.45;12.05;;;;;;;;;;5049129;28;20023;-82
2022/09/09 02:37:09;;;;;;;12.82;11.73;;;;;;;;;;5057705;28;20017;-78
2022/09/09 02:39:35;;;;;;;13.93;12.73;;;;;;;;;;5048828;28;20467;-82
2022/09/09 02:42:00;;;;;;;12.93;11.65;;;;;;;;;;5022492;28;20430;-81
2022/09/09 02:44:26;;;;;;;13.95;12.75;;;;;;;;;;5043381;28;20086;-82
2022/09/09 02:47:10;;;;;;;13.43;12.23;;;;;;;;;;5026436;28;20381;-77
2022/09/09 02:49:40;;;;;;;14.15;12.75;;;;;;;;;;5021510;28;20112;-76
2022/09/09 02:52:07;;;;;;;13.10;11.88;;;;;;;;;;5036458;28;20028;-80
2022/09/09 02:54:33;;;;;;;13.43;12.23;;;;;;;;;;5054727;28;20405;-77
2022/09/09 02:57:06;;;;;;;13.32;11.88;;;;;;;;;;5059291;28;20439;-79
2022/09/09 02:59:32;;;;;;;13.10;11.80;;;;;;;;;;5059316;28;20104;-76
2022/09/09 03:01:57;;;;;;;12.52;11.40;;;;;;;;;;5057749;28;20104;-75
2022/09/09 03:04:24;;;;;;;12.60;11.38;;;;;;;;;;5058290;28;20032;-79
2022/09/09 03:06:49;;;;;;;12.68;11.45;;;;;;;;;;5058482;28;20021;-75
2022/09/09 03:09:15;;;;;;;12.35;11.35;;;;;;;;;;5053522;28;20043;-76
2022/09/09 03:11:40;;;;;;;13.57;12.43;;;;;;;;;;5059233;28;20048;-76
2022/09/09 03:14:06;;;;;;;13.18;12.02;;;;;;;;;;5036685;28;20352;-77
2022/09/09 03:16:33;;;;;;;13.82;12.55;;;;;;;;;;5053855;28;20151;-76
2022/09/09 03:18:58;;;;;;;13.35;12.25;;;;;;;;;;5043716;28;20039;-77
2022/09/09 03:21:24;;;;;;;13.15;12.05;;;;;;;;;;5058279;28;20029;-78
2022/09/09 03:23:50;;;;;;;13.90;12.65;;;;;;;;;;5059609;28;20032;-77
2022/09/09 03:26:15;;;;;;;12.80;11.60;;;;;;;;;;5058305;28;20115;-77
2022/09/09 03:28:41;;;;;;;13.60;12.43;;;;;;;;;;5056749;28;20124;-75
2022/09/09 03:31:10;;;;;;;12.45;11.45;;;;;;;;;;5051816;28;20446;-77
2022/09/09 03:33:36;;;;;;;12.90;11.60;;;;;;;;;;5040947;28;20103;-77
2022/09/09 03:36:02;;;;;;;14.00;12.65;;;;;;;;;;5058577;28;20135;-78
2022/09/09 03:38:28;;;;;;;13.93;12.65;;;;;;;;;;5058483;28;20506;-77
2022/09/09 03:40:55;;;;;;;12.93;11.73;;;;;;;;;;5033191;28;20029;-75
2022/09/09 03:43:21;;;;;;;13.55;12.25;;;;;;;;;;5028986;28;20049;-77
2022/09/09 03:45:49;;;;;;;13.73;12.35;;;;;;;;;;5058580;28;20056;-77
2022/09/09 03:48:18;;;;;;;14.38;12.88;;;;;;;;;;5058764;28;20020;-77
2022/09/09 03:50:47;;;;;;;13.67;11.27;;;;;;;;;;5056752;28;20036;-77
2022/09/09 03:53:14;;;;;;;13.73;12.20;;;;;;;;;;5059159;28;20337;-78
2022/09/09 03:55:41;;;;;;;13.88;12.52;;;;;;;;;;5056243;28;20068;-77
2022/09/09 03:58:07;;;;;;;15.13;12.45;;;;;;;;;;5057617;28;20764;-77
2022/09/09 04:00:32;;;;;;;14.95;13.27;;;;;;;;;;5058567;28;20064;-77
2022/09/09 04:02:57;;;;;;;14.48;13.15;;;;;;;;;;5037244;28;20431;-76
2022/09/09 04:05:23;;;;;;;14.32;13.13;;;;;;;;;;5052518;28;20108;-77
2022/09/09 04:07:48;;;;;;;14.18;12.77;;;;;;;;;;5038070;28;20028;-76
2022/09/09 04:10:15;;;;;;;14.43;13.02;;;;;;;;;;5041401;28;20090;-76
2022/09/09 04:12:41;;;;;;;14.57;13.05;;;;;;;;;;5042150;28;20118;-77
2022/09/09 04:15:06;;;;;;;13.75;12.35;;;;;;;;;;5039306;28;20452;-77
2022/09/09 04:17:32;;;;;;;13.75;12.60;;;;;;;;;;5033942;28;20447;-78
2022/09/09 04:19:58;;;;;;;14.13;12.77;;;;;;;;;;5031312;28;20025;-76
2022/09/09 04:22:23;;;;;;;14.23;13.00;;;;;;;;;;5049105;28;20048;-77
2022/09/09 04:24:48;;;;;;;14.13;12.68;;;;;;;;;;5043829;28;20021;-77
2022/09/09 04:27:14;;;;;;;13.93;12.40;;;;;;;;;;5035356;28;20017;-77
2022/09/09 04:29:39;;;;;;;14.32;13.10;;;;;;;;;;5057958;28;20118;-77
2022/09/09 04:32:05;;;;;;;13.82;12.52;;;;;;;;;;5055805;28;20025;-75
2022/09/09 04:34:31;;;;;;;14.65;13.18;;;;;;;;;;5032037;28;20089;-78
2022/09/09 04:36:56;;;;;;;14.82;13.23;;;;;;;;;;5014211;28;20033;-75
2022/09/09 04:39:22;;;;;;;13.93;12.30;;;;;;;;;;5031411;28;20025;-76
2022/09/09 04:41:47;;;;;;;16.88;12.65;;;;;;;;;;5036479;28;20055;-78
2022/09/09 04:44:13;;;;;;;14.18;12.73;;;;;;;;;;5057423;28;20033;-78
2022/09/09 04:46:38;;;;;;;14.20;12.65;;;;;;;;;;5057568;28;20050;-78
2022/09/09 04:49:03;;;;;;;15.02;13.57;;;;;;;;;;5057765;28;20055;-75
2022/09/09 04:51:31;;;;;;;24.63;21.13;;;;;;;;;;5038816;28;20029;-76
2022/09/09 04:53:56;;;;;;;25.08;19.60;;;;;;;;;;5038262;28;20017;-75
2022/09/09 04:56:21;;;;;;;25.80;20.75;;;;;;;;;;5030629;28;20025;-76
2022/09/09 04:58:47;;;;;;;15.02;13.55;;;;;;;;;;5034560;28;20063;-76
2022/09/09 05:01:14;;;;;;;17.92;16.13;;;;;;;;;;5035197;28;20044;-76
2022/09/09 05:03:39;;;;;;;13.32;11.98;;;;;;;;;;5059557;28;20158;-76
2022/09/09 05:06:09;;;;;;;14.07;12.77;;;;;;;;;;5061771;28;20099;-75
2022/09/09 05:08:35;;;;;;;14.18;12.80;;;;;;;;;;5060737;28;20029;-75
2022/09/09 05:11:00;;;;;;;15.02;13.05;;;;;;;;;;5060805;28;20369;-77
2022/09/09 05:13:26;;;;;;;15.32;13.55;;;;;;;;;;5061759;28;20154;-78
2022/09/09 05:15:52;;;;;;;15.45;12.85;;;;;;;;;;5062005;28;20020;-78
2022/09/09 05:18:18;;;;;;;14.75;13.38;;;;;;;;;;5062396;28;20081;-75
2022/09/09 05:20:43;;;;;;;15.80;13.20;;;;;;;;;;5058444;28;20681;-76
2022/09/09 05:23:11;;;;;;;14.52;13.02;;;;;;;;;;5056712;28;23445;-75
2022/09/09 05:25:36;;;;;;;14.75;13.48;;;;;;;;;;5042212;28;20503;-78
2022/09/09 05:28:01;;;;;;;12.32;10.95;;;;;;;;;;5038705;28;20157;-76
2022/09/09 05:30:27;;;;;;;13.65;12.38;;;;;;;;;;5036702;28;20124;-75
2022/09/09 05:32:55;;;;;;;13.48;12.20;;;;;;;;;;5039470;28;20439;-76
2022/09/09 05:35:20;;;;;;;12.65;11.55;;;;;;;;;;5044989;28;20028;-75
2022/09/09 05:37:46;;;;;;;12.77;11.57;;;;;;;;;;5037717;28;20024;-77
2022/09/09 05:40:12;;;;;;;12.95;11.57;;;;;;;;;;5056666;28;20045;-77
2022/09/09 05:42:38;;;;;;;12.77;11.48;;;;;;;;;;5057806;28;20372;-76
2022/09/09 05:45:04;;;;;;;11.77;10.77;;;;;;;;;;5058289;28;20016;-76
2022/09/09 05:47:29;;;;;;;13.05;11.77;;;;;;;;;;5059877;28;20024;-77
2022/09/09 05:49:55;;;;;;;12.15;10.95;;;;;;;;;;5059706;28;20442;-77
2022/09/09 05:52:20;;;;;;;12.43;11.23;;;;;;;;;;5056737;28;20024;-77
2022/09/09 05:54:46;;;;;;;13.95;10.73;;;;;;;;;;5057141;28;20531;-78
2022/09/09 05:57:11;;;;;;;13.45;10.70;;;;;;;;;;5057857;28;20107;-77
2022/09/09 05:59:37;;;;;;;16.65;14.73;;;;;;;;;;5056838;28;20435;-76
2022/09/09 06:02:02;;;;;;;23.77;21.48;;;;;;;;;;5036616;28;20029;-76
2022/09/09 06:04:27;;;;;;;21.45;17.77;;;;;;;;;;5038521;28;20032;-76
2022/09/09 06:06:53;;;;;;;20.95;17.90;;;;;;;;;;5057757;28;20029;-77
2022/09/09 06:09:18;;;;;;;19.88;17.83;;;;;;;;;;5058157;28;20037;-77
2022/09/09 06:11:44;;;;;;;19.90;16.55;;;;;;;;;;5041143;28;20395;-77
2022/09/09 06:14:09;;;;;;;19.80;16.45;;;;;;;;;;5060825;28;20094;-80
2022/09/09 06:16:35;;;;;;;15.65;13.30;;;;;;;;;;5060366;28;20432;-78
2022/09/09 06:19:03;;;;;;;14.13;12.55;;;;;;;;;;5060561;28;20033;-76
2022/09/09 06:21:30;;;;;;;19.10;14.00;;;;;;;;;;5056473;28;20093;-78
2022/09/09 06:23:55;;;;;;;14.68;13.23;;;;;;;;;;5060184;28;20039;-76
2022/09/09 06:26:25;;;;;;;18.65;15.68;;;;;;;;;;5056771;28;20017;-76
2022/09/09 06:28:52;;;;;;;15.32;13.93;;;;;;;;;;5046116;28;20039;-77
2022/09/09 06:31:21;;;;;;;15.77;14.45;;;;;;;;;;5061131;28;20044;-76
2022/09/09 06:33:47;;;;;;;18.50;16.65;;;;;;;;;;5038565;28;20028;-77
2022/09/09 06:36:12;;;;;;;21.10;18.55;;;;;;;;;;5058683;28;20016;-75
2022/09/09 06:38:38;;;;;;;26.05;23.48;;;;;;;;;;5058313;28;20017;-77
2022/09/09 06:41:05;;;;;;;19.33;17.30;;;;;;;;;;5055453;28;20395;-77
2022/09/09 06:43:31;;;;;;;27.35;24.73;;;;;;;;;;5043428;28;20454;-77
2022/09/09 06:45:57;;;;;;;33.80;30.27;;;;;;;;;;5059014;28;20043;-79
2022/09/09 06:48:23;;;;;;;28.73;25.48;;;;;;;;;;5055318;28;20032;-79
2022/09/09 06:50:49;;;;;;;24.25;21.48;;;;;;;;;;5054102;28;20037;-79
2022/09/09 06:53:18;;;;;;;18.75;16.85;;;;;;;;;;5060291;28;20032;-76
2022/09/09 06:55:44;;;;;;;;;;;;;;;;;;5060714;28;20020;-77
2022/09/09 06:58:10;;;;;;;20.70;12.50;;;;;;;;;;5061897;28;20281;-77
2022/09/09 07:00:37;;;;;;;14.60;12.85;;;;;;;;;;5059422;28;20024;-77
2022/09/09 07:03:03;;;;;;;17.40;12.95;;;;;;;;;;5058784;28;20514;-76
2022/09/09 07:05:28;;;;;;;15.20;12.30;;;;;;;;;;5059612;28;20178;-76
2022/09/09 07:07:53;;;;;;;18.55;12.77;;;;;;;;;;5055968;28;20713;-75
2022/09/09 07:10:19;;;;;;;16.40;13.38;;;;;;;;;;5058521;28;20347;-77
2022/09/09 07:12:44;;;;;;;16.85;13.52;;;;;;;;;;5059411;28;20025;-77
2022/09/09 07:15:09;;;;;;;16.88;12.90;;;;;;;;;;5057911;28;20447;-77
2022/09/09 07:17:35;;;;;;;16.60;14.80;;;;;;;;;;5058512;28;20374;-77
2022/09/09 07:20:01;;;;;;;18.08;14.35;;;;;;;;;;5059115;28;20111;-77
2022/09/09 07:22:27;;;;;;;21.25;15.38;;;;;;;;;;5056937;28;20087;-76
2022/09/09 07:24:53;;;;;;;18.42;13.18;;;;;;;;;;5052378;28;20017;-76
2022/09/09 07:27:18;;;;;;;13.70;12.35;;;;;;;;;;5043375;28;20034;-75
2022/09/09 07:29:45;;;;;;;15.30;13.20;;;;;;;;;;5059263;28;20056;-76
2022/09/09 07:32:10;;;;;;;17.90;13.98;;;;;;;;;;5057616;28;20016;-76
2022/09/09 07:34:36;;;;;;;16.00;14.30;;;;;;;;;;5058607;28;20032;-76
2022/09/09 07:37:01;;;;;;;14.75;12.50;;;;;;;;;;5054937;28;20040;-78
2022/09/09 07:39:27;;;;;;;13.00;11.75;;;;;;;;;;5058165;28;20043;-77
2022/09/09 07:41:54;;;;;;;13.27;11.27;;;;;;;;;;5058130;28;20024;-76
2022/09/09 07:44:24;;;;;;;12.50;11.07;;;;;;;;;;5059039;28;20336;-77
2022/09/09 07:46:50;;;;;;;12.98;11.40;;;;;;;;;;5056247;28;20025;-77
2022/09/09 07:49:15;;;;;;;12.27;10.95;;;;;;;;;;5059226;28;20044;-76
2022/09/09 07:51:42;;;;;;;12.00;10.75;;;;;;;;;;5057178;28;20057;-77
2022/09/09 07:54:09;;;;;;;11.45;9.50;;;;;;;;;;5058810;28;20110;-77
2022/09/09 07:56:35;;;;;;;11.05;10.05;;;;;;;;;;5058644;28;20028;-76
2022/09/09 07:59:01;;;;;;;13.15;10.43;;;;;;;;;;5057362;28;20082;-77
2022/09/09 08:01:30;;;;;;;10.93;9.52;;;;;;;;;;5057140;28;20032;-76
2022/09/09 08:03:56;;;;;;;;;;;;;;;;;;5045146;28;20103;-77
2022/09/09 08:06:22;;;;;;;10.47;9.27;;;;;;;;;;5042759;28;19909;-74
2022/09/09 08:08:49;;;;;;;9.70;8.70;;;;;;;;;;5036881;28;20099;-76
2022/09/09 08:11:15;;;;;;;15.48;13.88;;;;;;;;;;5048217;28;20021;-76
2022/09/09 08:13:41;;;;;;;12.57;10.68;;;;;;;;;;5056833;28;20539;-76
2022/09/09 08:16:10;;;;;;;10.45;9.43;;;;;;;;;;5058460;28;20013;-76
2022/09/09 08:18:35;;;;;;;10.55;9.48;;;;;;;;;;5055958;28;20078;-75
2022/09/09 08:21:14;;;;;;;10.18;8.68;;;;;;;;;;5057336;28;20024;-75
2022/09/09 08:23:41;;;;;;;9.95;8.50;;;;;;;;;;5057384;28;20016;-76
2022/09/09 08:26:21;;;;;;;11.02;8.77;;;;;;;;;;5056693;28;20039;-76
2022/09/09 08:28:46;;;;;;;9.57;8.68;;;;;;;;;;5050381;28;20036;-74
2022/09/09 08:31:16;;;;;;;8.88;7.97;;;;;;;;;;5043806;28;20020;-76
2022/09/09 08:33:44;;;;;;;8.65;7.78;;;;;;;;;;5042679;28;20885;-77
2022/09/09 08:36:11;;;;;;;8.80;7.90;;;;;;;;;;5020370;28;20040;-75
2022/09/09 08:38:37;;;;;;;8.70;8.00;;;;;;;;;;5041412;28;20031;-77
2022/09/09 08:41:21;;;;;;;8.40;7.43;;;;;;;;;;5045644;28;20402;-76
2022/09/09 08:43:47;;;;;;;8.30;7.47;;;;;;;;;;5042410;28;20084;-76
2022/09/09 08:46:21;;;;;;;8.20;7.38;;;;;;;;;;5049649;28;23740;-75
2022/09/09 08:48:58;;;;;;;8.18;7.35;;;;;;;;;;5061352;28;22545;-76
2022/09/09 08:51:29;;;;;;;8.25;7.43;;;;;;;;;;5048723;28;20040;-75
2022/09/09 08:53:55;;;;;;;8.50;7.10;;;;;;;;;;5044248;28;20032;-76
2022/09/09 08:56:25;;;;;;;9.25;7.55;;;;;;;;;;5060107;28;20032;-77
2022/09/09 08:58:56;;;;;;;8.35;7.30;;;;;;;;;;5060565;28;20036;-75
2022/09/09 09:01:37;;;;;;;9.90;7.75;;;;;;;;;;5061644;28;20507;-75
2022/09/09 09:04:21;;;;;;;10.05;7.75;;;;;;;;;;5040483;28;20024;-75
2022/09/09 09:06:54;;;;;;;9.32;7.85;;;;;;;;;;5037293;28;20032;-78
2022/09/09 09:09:22;;;;;;;8.75;6.95;;;;;;;;;;5042958;28;20089;-78
2022/09/09 09:11:53;;;;;;;8.75;7.15;;;;;;;;;;5042587;28;20021;-76
2022/09/09 09:14:25;;;;;;;8.60;7.90;;;;;;;;;;5038908;28;20021;-75
2022/09/09 09:16:54;;;;;;;10.60;8.27;;;;;;;;;;5059982;28;20025;-77
2022/09/09 09:19:22;;;;;;;8.90;8.10;;;;;;;;;;5061453;28;20359;-76
2022/09/09 09:22:15;;;;;;;9.23;8.20;;;;;;;;;;5060939;28;20098;-76
2022/09/09 09:24:46;;;;;;;11.98;9.25;;;;;;;;;;5061115;28;20032;-75
2022/09/09 09:27:13;;;;;;;12.05;8.27;;;;;;;;;;5061422;28;20021;-75
2022/09/09 09:29:40;;;;;;;9.88;8.88;;;;;;;;;;5059178;28;20036;-77
2022/09/09 09:32:05;;;;;;;8.77;7.57;;;;;;;;;;5059012;28;20436;-76
2022/09/09 09:34:31;;;;;;;9.13;7.32;;;;;;;;;;5060054;28;20021;-76
2022/09/09 09:36:57;;;;;;;8.20;7.30;;;;;;;;;;5060279;28;20336;-76
2022/09/09 09:39:42;;;;;;;7.60;6.70;;;;;;;;;;5060482;28;20359;-76
2022/09/09 09:42:14;;;;;;;15.90;7.65;;;;;;;;;;5062477;28;20049;-80
2022/09/09 09:44:40;;;;;;;9.70;7.00;;;;;;;;;;5061899;28;20036;-76
2022/09/09 09:47:15;;;;;;;8.35;7.25;;;;;;;;;;5039378;28;20105;-75
2022/09/09 09:50:01;;;;;;;8.00;7.20;;;;;;;;;;5042303;28;20451;-77
2022/09/09 09:52:30;;;;;;;10.48;7.50;;;;;;;;;;5058259;28;20382;-76
2022/09/09 09:54:57;;;;;;;9.25;6.97;;;;;;;;;;5059623;28;20035;-78
2022/09/09 09:57:29;;;;;;;12.48;7.05;;;;;;;;;;5059401;28;20473;-75
2022/09/09 10:00:06;;;;;;;7.75;6.78;;;;;;;;;;5040471;28;22897;-74
2022/09/09 10:02:37;;;;;;;11.68;7.15;;;;;;;;;;5060698;28;20656;-75
2022/09/09 10:05:04;;;;;;;8.68;7.32;;;;;;;;;;5058752;28;20945;-77
2022/09/09 10:07:29;;;;;;;13.88;8.30;;;;;;;;;;5061328;28;20032;-78
2022/09/09 10:09:55;;;;;;;10.77;7.20;;;;;;;;;;5060561;28;20051;-76
2022/09/09 10:12:35;;;;;;;10.65;6.93;;;;;;;;;;5059805;28;20435;-76
2022/09/09 10:15:13;;;;;;;8.73;7.20;;;;;;;;;;5058650;28;20032;-78
2022/09/09 10:17:45;;;;;;;9.73;7.65;;;;;;;;;;5059786;28;20028;-78
2022/09/09 10:20:10;;;;;;;10.25;7.20;;;;;;;;;;5058209;28;20032;-76
2022/09/09 10:22:36;;;;;;;9.85;7.38;;;;;;;;;;5059661;28;20035;-77
2022/09/09 10:25:23;;;;;;;10.52;7.93;;;;;;;;;;5060484;28;20029;-76
2022/09/09 10:27:51;;;;;;;11.88;7.43;;;;;;;;;;5057887;28;20024;-77
2022/09/09 10:30:17;;;;;;;7.25;6.53;;;;;;;;;;5058593;28;20047;-76
2022/09/09 10:32:46;;;;;;;12.60;7.95;;;;;;;;;;5059194;28;20331;-75
2022/09/09 10:35:27;;;;;;;10.18;7.00;;;;;;;;;;5058528;28;20717;-76
2022/09/09 10:37:58;;;;;;;9.88;8.05;;;;;;;;;;5058291;28;20055;-75
2022/09/09 10:40:29;;;;;;;9.63;7.30;;;;;;;;;;5059578;28;20105;-76
2022/09/09 10:42:59;;;;;;;7.75;6.82;;;;;;;;;;5059614;28;20344;-75
2022/09/09 10:45:33;;;;;;;7.93;7.00;;;;;;;;;;5059028;28;20090;-77
2022/09/09 10:47:59;;;;;;;11.90;8.20;;;;;;;;;;5059646;28;20028;-77
2022/09/09 10:50:55;;;;;;;8.75;7.30;;;;;;;;;;5058720;28;20106;-77
2022/09/09 10:53:39;;;;;;;10.02;7.53;;;;;;;;;;4979998;28;20041;-76
2022/09/09 10:56:09;;;;;;;9.02;7.85;;;;;;;;;;4981224;28;20038;-77
2022/09/09 10:58:38;;;;;;;7.38;6.68;;;;;;;;;;4980445;28;20042;-75
2022/09/09 11:01:13;;;;;;;8.30;7.47;;;;;;;;;;4980653;28;20030;-76
2022/09/09 11:03:40;;;;;;;7.68;7.03;;;;;;;;;;4979446;28;20038;-76
2022/09/09 11:06:08;;;;;;;7.88;7.10;;;;;;;;;;4980377;28;20034;-76
2022/09/09 11:08:35;;;;;;;7.93;7.20;;;;;;;;;;4978787;28;20038;-75
2022/09/09 11:11:00;;;;;;;9.20;7.18;;;;;;;;;;4971395;28;20050;-76
2022/09/09 11:13:44;;;;;;;7.65;6.65;;;;;;;;;;4977834;28;20045;-74
2022/09/09 11:16:19;;;;;;;8.20;7.40;;;;;;;;;;4978740;28;20081;-76
2022/09/09 11:18:46;;;;;;;11.00;6.88;;;;;;;;;;4979353;28;20034;-76
2022/09/09 11:21:34;;;;;;;7.75;6.93;;;;;;;;;;4979103;28;20057;-76
2022/09/09 11:24:04;;;;;;;8.75;7.65;;;;;;;;;;4969339;28;20096;-74
2022/09/09 11:26:37;;;;;;;8.50;7.00;;;;;;;;;;4978635;28;20414;-75
2022/09/09 11:29:02;;;;;;;7.93;6.80;;;;;;;;;;4995017;28;20064;-76
2022/09/09 11:31:44;;;;;;;8.88;7.60;;;;;;;;;;5057853;28;20036;-75
2022/09/09 11:34:28;;;;;;;7.63;6.88;;;;;;;;;;5057642;28;20966;-76
2022/09/09 11:37:07;;;;;;;7.70;6.90;;;;;;;;;;5058097;28;20033;-75
2022/09/09 11:39:32;;;;;;;7.55;6.85;;;;;;;;;;5059021;28;20025;-77
2022/09/09 11:42:13;;;;;;;6.93;6.10;;;;;;;;;;5054606;28;20343;-76
2022/09/09 11:44:39;;;;;;;6.75;6.03;;;;;;;;;;5037652;28;20406;-76
2022/09/09 11:47:16;;;;;;;9.40;6.28;;;;;;;;;;5033176;28;20037;-76
2022/09/09 11:49:42;;;;;;;7.50;6.20;;;;;;;;;;5036002;28;20398;-77
2022/09/09 11:52:25;;;;;;;12.55;7.28;;;;;;;;;;5035949;28;20036;-78
2022/09/09 11:54:50;;;;;;;6.88;5.57;;;;;;;;;;5035720;28;20029;-78
2022/09/09 11:57:30;;;;;;;8.85;5.65;;;;;;;;;;5032592;28;20017;-77
2022/09/09 11:59:56;;;;;;;8.30;6.60;;;;;;;;;;5036829;28;20032;-78
2022/09/09 12:02:26;;;;;;;8.88;6.13;;;;;;;;;;5049953;28;20028;-75
2022/09/09 12:05:05;;;;;;;6.93;5.50;;;;;;;;;;5059157;28;20504;-75
2022/09/09 12:07:35;;;;;;;7.88;6.13;;;;;;;;;;5057757;28;20074;-78
2022/09/09 12:10:04;;;;;;;11.68;6.38;;;;;;;;;;5056552;28;20107;-79
2022/09/09 12:12:37;;;;;;;7.00;5.97;;;;;;;;;;5055708;28;20115;-75
2022/09/09 12:15:08;;;;;;;9.13;6.05;;;;;;;;;;5048907;28;20037;-75
2022/09/09 12:17:57;;;;;;;15.80;13.88;;;;;;;;;;5044264;28;20059;-76
2022/09/09 12:20:36;;;;;;;9.68;7.32;;;;;;;;;;5045555;28;20051;-75
2022/09/09 12:23:10;;;;;;;10.35;6.45;;;;;;;;;;5057301;28;21007;-78
2022/09/09 12:25:48;;;;;;;10.27;5.53;;;;;;;;;;5059165;28;20024;-75
2022/09/09 12:28:14;;;;;;;12.90;6.40;;;;;;;;;;5057181;28;20104;-76
2022/09/09 12:30:45;;;;;;;11.88;7.53;;;;;;;;;;5037790;28;20100;-77
2022/09/09 12:33:12;;;;;;;8.10;6.10;;;;;;;;;;5037313;28;20021;-76
2022/09/09 12:35:38;;;;;;;7.82;5.70;;;;;;;;;;5036397;28;20033;-74
2022/09/09 12:38:06;;;;;;;10.50;6.07;;;;;;;;;;5034797;28;20028;-75
2022/09/09 12:40:35;;;;;;;10.63;6.20;;;;;;;;;;5035043;28;20367;-77
2022/09/09 12:43:01;;;;;;;6.60;5.25;;;;;;;;;;5033223;28;20045;-77
2022/09/09 12:45:28;;;;;;;7.93;6.00;;;;;;;;;;5034346;28;20079;-76
2022/09/09 12:48:00;;;;;;;8.70;5.45;;;;;;;;;;5035959;28;20029;-76
2022/09/09 12:50:27;;;;;;;8.65;5.95;;;;;;;;;;5038060;28;20052;-75
2022/09/09 12:52:58;;;;;;;10.80;5.90;;;;;;;;;;5036475;28;20070;-76
2022/09/09 12:55:35;;;;;;;14.57;6.82;;;;;;;;;;5041851;28;20037;-76
2022/09/09 12:58:04;;;;;;;12.88;6.35;;;;;;;;;;5033370;28;20103;-74
2022/09/09 13:00:31;;;;;;;16.35;5.45;;;;;;;;;;5035839;28;20024;-77
2022/09/09 13:03:00;;;;;;;9.77;5.88;;;;;;;;;;5035010;28;20128;-76
2022/09/09 13:05:27;;;;;;;12.60;6.85;;;;;;;;;;5039048;28;20129;-74
2022/09/09 13:08:03;;;;;;;10.95;4.95;;;;;;;;;;5040252;28;20083;-74
2022/09/09 13:10:29;;;;;;;14.20;8.10;;;;;;;;;;5035674;28;20045;-75
2022/09/09 13:12:55;;;;;;;13.00;7.00;;;;;;;;;;5035718;28;20059;-75
2022/09/09 13:15:22;;;;;;;10.55;6.28;;;;;;;;;;5048476;28;20052;-76
2022/09/09 13:17:55;;;;;;;12.30;6.22;;;;;;;;;;5041954;28;20451;-77
2022/09/09 13:20:21;;;;;;;10.13;5.38;;;;;;;;;;5039765;28;20029;-76
2022/09/09 13:22:48;;;;;;;12.05;5.75;;;;;;;;;;5039374;28;20032;-76
2022/09/09 13:25:18;;;;;;;9.80;5.10;;;;;;;;;;5042419;28;20056;-77
2022/09/09 13:28:01;;;;;;;11.07;5.15;;;;;;;;;;5042755;28;20059;-76
2022/09/09 13:30:26;;;;;;;10.35;4.63;;;;;;;;;;5049944;28;20032;-77
2022/09/09 13:33:06;;;;;;;9.70;4.72;;;;;;;;;;5050508;28;20040;-76
2022/09/09 13:35:32;;;;;;;14.70;5.05;;;;;;;;;;5055617;28;20020;-77
2022/09/09 13:37:58;;;;;;;12.27;4.90;;;;;;;;;;5034310;28;20021;-77
2022/09/09 13:40:24;;;;;;;11.38;4.88;;;;;;;;;;5040538;28;20036;-74
2022/09/09 13:42:54;;;;;;;10.68;5.13;;;;;;;;;;5052715;28;20044;-72
2022/09/09 13:45:21;;;;;;;10.43;5.03;;;;;;;;;;5024752;28;20033;-76
2022/09/09 13:47:47;;;;;;;12.55;4.57;;;;;;;;;;5063534;28;20039;-76
2022/09/09 13:50:24;;;;;;;8.77;4.65;;;;;;;;;;5032012;28;20048;-75
2022/09/09 13:52:51;;;;;;;11.13;4.97;;;;;;;;;;5044335;28;20028;-76
2022/09/09 13:55:17;;;;;;;11.30;4.88;;;;;;;;;;5040690;28;20024;-75
2022/09/09 13:57:55;;;;;;;11.25;5.13;;;;;;;;;;5035754;28;20021;-76
2022/09/09 14:00:22;;;;;;;9.43;4.45;;;;;;;;;;5039870;28;20046;-74
2022/09/09 14:02:51;;;;;;;12.18;4.97;;;;;;;;;;5036172;28;20040;-73
2022/09/09 14:05:17;;;;;;;10.77;4.20;;;;;;;;;;5035649;28;20063;-76
2022/09/09 14:07:43;;;;;;;8.02;4.40;;;;;;;;;;5038681;28;20056;-74
2022/09/09 14:10:09;;;;;;;8.60;4.10;;;;;;;;;;5027454;28;20036;-76
2022/09/09 14:12:36;;;;;;;8.52;4.25;;;;;;;;;;5038153;28;20032;-75
2022/09/09 14:15:01;;;;;;;9.43;4.97;;;;;;;;;;5033591;28;20029;-75
2022/09/09 14:17:29;;;;;;;9.73;5.15;;;;;;;;;;5040068;28;20083;-75
2022/09/09 14:19:54;;;;;;;10.65;4.55;;;;;;;;;;5043966;28;20039;-73
2022/09/09 14:22:20;;;;;;;7.28;4.35;;;;;;;;;;5036902;28;20028;-75
2022/09/09 14:24:46;;;;;;;9.10;4.53;;;;;;;;;;5032933;28;20159;-74
2022/09/09 14:27:11;;;;;;;6.20;4.53;;;;;;;;;;5034497;28;20032;-74
2022/09/09 14:29:36;;;;;;;5.85;4.45;;;;;;;;;;5061084;28;20082;-74
2022/09/09 14:32:02;;;;;;;5.50;3.85;;;;;;;;;;5059699;28;20160;-74
2022/09/09 14:34:27;;;;;;;8.38;4.45;;;;;;;;;;5058744;28;20040;-74
2022/09/09 14:36:52;;;;;;;6.25;4.18;;;;;;;;;;5040533;28;20374;-74